Nashville, Tennessee
Traffic Map
Current Weather Conditions
Nashville, Tennessee
Few Clouds
Few Clouds
26°
Feels Like: 26°
Wind Chill: 26° Ceiling: Unl
Heat Index: 26° Visibility: 10mi
Dew Point: 13° Wind: 0mph
Humidity: 46% Direction: ° ()
Pressure: 29.94in Gusts: 0mph
Raw Report DataKBNA 012353Z 00000KT 10SM FEW120 26/13 A2994 RMK AO2 SLP133 T02560133 10311 20256 53002
Traffic Incident Summary
Active as of:
Severity:
Category:
InformationThere was an issue retrieving the traffic information for this location. Please try a different location or try again shortly.
Advertisements
Track Severe Weather on mobile